Warren, PA

2:33 PM EDT on June 02, 2015 (GMT -0400)
Chautauqua County-Jamestown | | Change Station
CLOSE
Current Station
Airport
Location: Jamestown,
Elevation: 1722 ft
Nearby Weather Stations

Elev 1722 ft 42.15 °N, 79.26 °W | Updated 38 minutes ago

Partly Cloudy
Partly Cloudy
61 °F
Feels Like 61 °F
N
12
Wind Variable Wind from ENE
Gusts 18 mph

Today
High -- | Low -- °F
--% Chance of Precip.
Yesterday
High -- | Low -- °F
Precip. -- in
5:43 AM 8:45 PM
Full, 100% visible
Pressure 30.18 in
Visibility 10.0 miles
Clouds Clear
Dew Point 45 °F
Humidity 55%
Rainfall 0.00 in
Snow Depth Not available.
UV 11 out of 12
Pollen 9.10 out of 12
Air Quality Not available.
Flu Activity Sporadic
METAR KJHW 021755Z 06010G16KT 10SM CLR 16/07 A3018 RMK AO1 10160 20090 57010

More Conditions Fewer Conditions

Pressure 30.18 in
Visibility 10.0 miles
Clouds Clear
Dew Point 45 °F
Humidity 55%
Rainfall 0.00 in
Snow Depth Not available.
UV 11 out of 12
Pollen 9.10 out of 12
Air Quality Not available.
Flu Activity Sporadic
METAR KJHW 021755Z 06010G16KT 10SM CLR 16/07 A3018 RMK AO1 10160 20090 57010

More Conditions Fewer Conditions

10-Day Weather Forecast

×

Almanac

Astronomy

Jun. 02, 2015 Rise Set
Actual Time
Civil Twilight
Nautical Twilight
Astronomical Twilight
Moon
Length of Visible Light
Length of Day
Tomorrow will be .
, % of the Moon is Illuminated

Today's Extremes

State Highs State Lows

Community

WunderPhotos

Upload Photos

1,825,997 photos uploaded!

WunderBlogs® & News

Nearby

Air Quality

  Air Quality AQ Index Pollutant
Not available.

Snow Depth

Station Depth Elevation

Earthquake Activity

City Distance Mag. Time & Date
Minimum magnitude displayed is 2.5.

Coastal Water Temperatures

Place Temperature

Stations

Nearby Weather Stations

Station Location Temp. Windchill Dew Point Humidity Wind Precip. Elev Updated Type